Time;durP1;ratioP1;P1;durP2;ratioP2;P2;SDS_P1;SDS_P2;PMS_P1;PMS_P2;Temp;Humidity;BMP_temperature;BMP_pressure;BME280_temperature;BME280_humidity;BME280_pressure;Samples;Min_cycle;Max_cycle;Signal;HPM_P1;HPM_P2
2023/06/07 00:01:59;;;;;;;;;;;9.90;99.90;;;;;;5066850;28;19925;-73
2023/06/07 00:04:25;;;;;;;;;;;9.90;99.90;;;;;;5068083;28;20287;-72
2023/06/07 00:06:56;;;;;;;;;;;9.70;99.90;;;;;;5067477;28;19925;-73
2023/06/07 00:09:22;;;;;;;;;;;9.80;99.90;;;;;;5064832;28;20046;-74
2023/06/07 00:11:47;;;;;;;;;;;9.80;99.90;;;;;;5065934;28;20438;-74
2023/06/07 00:14:13;;;;;;;;;;;9.90;99.90;;;;;;5060706;28;19932;-73
2023/06/07 00:16:39;;;;;;;;;;;9.90;99.90;;;;;;5062553;28;19974;-74
2023/06/07 00:19:06;;;;;;;;;;;10.00;99.90;;;;;;5068873;28;19929;-74
2023/06/07 00:21:32;;;;;;;;;;;9.90;99.90;;;;;;5068357;28;19931;-74
2023/06/07 00:23:57;;;;;;;;;;;9.90;99.90;;;;;;5068471;28;20318;-73
2023/06/07 00:26:23;;;;;;;;;;;9.90;99.90;;;;;;5066149;28;19975;-74
2023/06/07 00:28:49;;;;;;;;;;;9.80;99.90;;;;;;5068196;28;19932;-73
2023/06/07 00:31:14;;;;;;;;;;;9.80;99.90;;;;;;5067690;28;19932;-74
2023/06/07 00:33:40;;;;;;;;;;;10.00;99.90;;;;;;5067416;28;19924;-74
2023/06/07 00:36:05;;;;;;;;;;;9.80;99.90;;;;;;5063187;28;19960;-74
2023/06/07 00:38:31;;;;;;;;;;;9.90;99.90;;;;;;5067829;28;19932;-73
2023/06/07 00:40:56;;;;;;;;;;;10.10;99.90;;;;;;5066834;28;19956;-74
2023/06/07 00:43:24;;;;;;;;;;;10.00;99.90;;;;;;5066941;28;19925;-73
2023/06/07 00:45:50;;;;;;;;;;;10.00;99.90;;;;;;5067872;28;20320;-74
2023/06/07 00:48:15;;;;;;;;;;;10.10;99.90;;;;;;5068267;28;19999;-73
2023/06/07 00:50:41;;;;;;;;;;;10.10;99.90;;;;;;5067459;28;19993;-74
2023/06/07 00:53:07;;;;;;;;;;;10.00;99.90;;;;;;5066714;28;20438;-74
2023/06/07 00:55:33;;;;;;;;;;;10.00;99.90;;;;;;5064581;28;19995;-74
2023/06/07 00:57:58;;;;;;;;;;;10.00;99.90;;;;;;5062180;28;19932;-74
2023/06/07 01:00:24;;;;;;;;;;;10.10;99.90;;;;;;5065015;28;19924;-74
2023/06/07 01:02:51;;;;;;;;;;;10.20;99.90;;;;;;5065425;28;19977;-73
2023/06/07 01:05:17;;;;;;;;;;;10.00;99.90;;;;;;5132818;22;19925;-74
2023/06/07 01:07:44;;;;;;;;;;;10.00;99.90;;;;;;5049350;28;20298;-74
2023/06/07 01:10:10;;;;;;;;;;;10.10;99.90;;;;;;5055873;28;19985;-74
2023/06/07 01:12:37;;;;;;;;;;;10.10;99.90;;;;;;5051534;28;19956;-75
2023/06/07 01:15:02;;;;;;;;;;;10.00;99.90;;;;;;5046995;28;19924;-74
2023/06/07 01:17:28;;;;;;;;;;;10.00;99.90;;;;;;5043355;28;20386;-74
2023/06/07 01:19:55;;;;;;;;;;;9.80;99.90;;;;;;5047666;28;20520;-73
2023/06/07 01:22:25;;;;;;;;;;;10.00;99.90;;;;;;5048587;28;19954;-72
2023/06/07 01:24:52;;;;;;;;;;;9.90;99.90;;;;;;5047598;28;19947;-73
2023/06/07 01:27:21;;;;;;;;;;;10.00;99.90;;;;;;5040843;28;19932;-73
2023/06/07 01:29:48;;;;;;;;;;;10.10;99.90;;;;;;5047667;28;19925;-74
2023/06/07 01:32:14;;;;;;;;;;;10.10;99.90;;;;;;5047442;28;19938;-73
2023/06/07 01:34:41;;;;;;;;;;;9.90;99.90;;;;;;5045599;28;19928;-74
2023/06/07 01:37:06;;;;;;;;;;;10.10;99.90;;;;;;5052804;28;19935;-74
2023/06/07 01:39:32;;;;;;;;;;;10.00;99.90;;;;;;5047567;28;19924;-74
2023/06/07 01:41:59;;;;;;;;;;;10.10;99.90;;;;;;5045214;28;19928;-74
2023/06/07 01:44:25;;;;;;;;;;;10.00;99.90;;;;;;5046695;28;19970;-75
2023/06/07 01:46:51;;;;;;;;;;;10.10;99.90;;;;;;5044546;28;19933;-74
2023/06/07 01:49:17;;;;;;;;;;;10.00;99.90;;;;;;5042229;28;19931;-75
2023/06/07 01:51:42;;;;;;;;;;;10.10;99.90;;;;;;5046209;28;19939;-74
2023/06/07 01:54:08;;;;;;;;;;;10.20;99.90;;;;;;5056434;28;20465;-74
2023/06/07 01:56:45;;;;;;;;;;;10.30;99.90;;;;;;5044709;28;20330;-75
2023/06/07 01:59:29;;;;;;;;;;;10.20;99.90;;;;;;5043971;28;19990;-74
2023/06/07 02:02:00;;;;;;;;;;;10.20;99.90;;;;;;5040452;28;20015;-74
2023/06/07 02:04:27;;;;;;;;;;;10.20;99.90;;;;;;5045277;28;20319;-74
2023/06/07 02:06:54;;;;;;;;;;;10.30;99.90;;;;;;5053522;28;20047;-74
2023/06/07 02:09:22;;;;;;;;;;;10.20;99.90;;;;;;5048924;28;19959;-74
2023/06/07 02:11:49;;;;;;;;;;;10.30;99.90;;;;;;5056861;28;20687;-74
2023/06/07 02:14:15;;;;;;;;;;;10.30;99.90;;;;;;5061366;28;19929;-74
2023/06/07 02:16:41;;;;;;;;;;;10.50;99.90;;;;;;5047224;28;19967;-74
2023/06/07 02:19:07;;;;;;;;;;;10.30;99.90;;;;;;5054410;28;19997;-74
2023/06/07 02:21:36;;;;;;;;;;;10.50;99.90;;;;;;5049706;28;19931;-75
2023/06/07 02:24:05;;;;;;;;;;;10.30;99.90;;;;;;5065106;28;20024;-74
2023/06/07 02:26:32;;;;;;;;;;;10.30;99.90;;;;;;5047748;28;20436;-74
2023/06/07 02:28:58;;;;;;;;;;;10.40;99.90;;;;;;5050573;28;19978;-74
2023/06/07 02:31:24;;;;;;;;;;;10.40;99.90;;;;;;5040688;28;19928;-74
2023/06/07 02:33:49;;;;;;;;;;;10.40;99.90;;;;;;5049430;28;20008;-74
2023/06/07 02:36:17;;;;;;;;;;;10.50;99.90;;;;;;5053534;28;19925;-75
2023/06/07 02:38:43;;;;;;;;;;;10.30;99.90;;;;;;5052167;28;19932;-73
2023/06/07 02:41:08;;;;;;;;;;;10.40;99.90;;;;;;5050669;28;19939;-73
2023/06/07 02:43:34;;;;;;;;;;;10.60;99.90;;;;;;5047511;28;20022;-74
2023/06/07 02:45:59;;;;;;;;;;;10.50;99.90;;;;;;5048103;28;19951;-75
2023/06/07 02:48:25;;;;;;;;;;;10.60;99.90;;;;;;5064833;28;19925;-73
2023/06/07 02:50:51;;;;;;;;;;;10.50;99.90;;;;;;5045650;28;19925;-73
2023/06/07 02:53:16;;;;;;;;;;;10.60;99.90;;;;;;5057871;28;19924;-73
2023/06/07 02:55:42;;;;;;;;;;;10.80;99.90;;;;;;5049346;28;20506;-74
2023/06/07 02:58:07;;;;;;;;;;;10.60;99.90;;;;;;5048234;28;19983;-74
2023/06/07 03:00:33;;;;;;;;;;;10.60;99.90;;;;;;5046867;28;20370;-74
2023/06/07 03:02:58;;;;;;;;;;;10.60;99.90;;;;;;5048457;28;19934;-74
2023/06/07 03:05:26;;;;;;;;;;;10.60;99.90;;;;;;5047916;28;20374;-74
2023/06/07 03:07:52;;;;;;;;;;;10.80;99.90;;;;;;5052987;28;19925;-74
2023/06/07 03:10:18;;;;;;;;;;;10.70;99.90;;;;;;5046262;28;19929;-75
2023/06/07 03:12:43;;;;;;;;;;;10.80;99.90;;;;;;5049001;28;20118;-74
2023/06/07 03:15:09;;;;;;;;;;;10.80;99.90;;;;;;5051430;28;19931;-75
2023/06/07 03:17:36;;;;;;;;;;;10.80;99.90;;;;;;5046109;28;19925;-74
2023/06/07 03:20:04;;;;;;;;;;;10.70;99.90;;;;;;5053079;28;20007;-74
2023/06/07 03:22:30;;;;;;;;;;;10.80;99.90;;;;;;5047506;28;19927;-74
2023/06/07 03:24:57;;;;;;;;;;;10.80;99.90;;;;;;5047991;28;20298;-74
2023/06/07 03:27:23;;;;;;;;;;;10.80;99.90;;;;;;5046499;28;19928;-74
2023/06/07 03:29:49;;;;;;;;;;;10.90;99.90;;;;;;5049657;28;19943;-75
2023/06/07 03:32:15;;;;;;;;;;;10.80;99.90;;;;;;5048835;28;19924;-75
2023/06/07 03:34:41;;;;;;;;;;;10.90;99.90;;;;;;5053061;28;20303;-74
2023/06/07 03:37:07;;;;;;;;;;;10.80;99.90;;;;;;5049598;28;19997;-74
2023/06/07 03:39:33;;;;;;;;;;;10.90;99.90;;;;;;5038067;28;20672;-74
2023/06/07 03:41:58;;;;;;;;;;;10.80;99.90;;;;;;5045118;28;20593;-73
2023/06/07 03:44:24;;;;;;;;;;;11.00;99.90;;;;;;5055940;28;19963;-74
2023/06/07 03:46:50;;;;;;;;;;;11.10;99.90;;;;;;5044614;28;20359;-74
2023/06/07 03:49:15;;;;;;;;;;;11.10;99.90;;;;;;5030034;28;19932;-74
2023/06/07 03:51:43;;;;;;;;;;;10.90;99.90;;;;;;5045513;28;20422;-74
2023/06/07 03:54:09;;;;;;;;;;;11.00;99.90;;;;;;5050391;28;19932;-75
2023/06/07 03:56:35;;;;;;;;;;;11.10;99.90;;;;;;5045549;28;20008;-73
2023/06/07 03:59:01;;;;;;;;;;;11.00;99.90;;;;;;5047441;28;20335;-75
2023/06/07 04:01:27;;;;;;;;;;;11.10;99.90;;;;;;5029482;28;19928;-75
2023/06/07 04:03:53;;;;;;;;;;;11.00;99.90;;;;;;5029662;28;19932;-73
2023/06/07 04:06:24;;;;;;;;;;;11.20;99.90;;;;;;5037597;28;19925;-75
2023/06/07 04:08:51;;;;;;;;;;;11.00;99.90;;;;;;5055425;28;19930;-74
2023/06/07 04:11:17;;;;;;;;;;;11.20;99.90;;;;;;5047953;28;19920;-76
2023/06/07 04:13:44;;;;;;;;;;;11.20;99.90;;;;;;5035176;28;19936;-75
2023/06/07 04:16:10;;;;;;;;;;;11.30;99.90;;;;;;5046824;28;20681;-75
2023/06/07 04:18:36;;;;;;;;;;;11.20;99.90;;;;;;5052876;28;20509;-74
2023/06/07 04:21:01;;;;;;;;;;;11.10;99.90;;;;;;5034303;28;19982;-74
2023/06/07 04:23:27;;;;;;;;;;;11.20;99.90;;;;;;5062777;28;19925;-74
2023/06/07 04:25:55;;;;;;;;;;;11.10;99.90;;;;;;5049312;28;19925;-75
2023/06/07 04:28:23;;;;;;;;;;;11.20;99.90;;;;;;5058809;28;19933;-75
2023/06/07 04:30:49;;;;;;;;;;;11.20;99.90;;;;;;5061551;28;20375;-74
2023/06/07 04:33:17;;;;;;;;;;;11.20;99.90;;;;;;5043540;28;19932;-75
2023/06/07 04:35:42;;;;;;;;;;;11.30;99.90;;;;;;5045618;28;19932;-75
2023/06/07 04:38:12;;;;;;;;;;;11.20;99.90;;;;;;5047709;28;20260;-74
2023/06/07 04:40:40;;;;;;;;;;;11.40;99.90;;;;;;5048653;28;19929;-76
2023/06/07 04:43:07;;;;;;;;;;;11.40;99.90;;;;;;5055758;28;19932;-74
2023/06/07 04:45:33;;;;;;;;;;;11.40;99.90;;;;;;5050970;28;20528;-74
2023/06/07 04:47:58;;;;;;;;;;;11.30;99.90;;;;;;5056319;28;19956;-74
2023/06/07 04:50:24;;;;;;;;;;;11.40;99.90;;;;;;5055962;28;19929;-74
2023/06/07 04:52:50;;;;;;;;;;;11.30;99.90;;;;;;5046751;28;19924;-75
2023/06/07 04:55:16;;;;;;;;;;;11.20;99.90;;;;;;5046016;28;19920;-74
2023/06/07 04:57:45;;;;;;;;;;;11.30;99.90;;;;;;5042204;28;19929;-74
2023/06/07 05:00:12;;;;;;;;;;;11.40;99.90;;;;;;5015724;28;19925;-73
2023/06/07 05:02:41;;;;;;;;;;;11.40;99.90;;;;;;5044434;28;20353;-74
2023/06/07 05:05:08;;;;;;;;;;;11.60;99.90;;;;;;5052057;28;19929;-74
2023/06/07 05:07:34;;;;;;;;;;;11.60;99.90;;;;;;5044629;28;19924;-74
2023/06/07 05:09:59;;;;;;;;;;;11.40;99.90;;;;;;5047849;28;20028;-74
2023/06/07 05:12:25;;;;;;;;;;;11.50;99.90;;;;;;5031494;28;19925;-74
2023/06/07 05:14:50;;;;;;;;;;;11.50;99.90;;;;;;5038316;28;19964;-74
2023/06/07 05:17:19;;;;;;;;;;;11.60;99.90;;;;;;5042370;28;20046;-74
2023/06/07 05:19:44;;;;;;;;;;;11.60;99.90;;;;;;5047057;28;19943;-74
2023/06/07 05:22:10;;;;;;;;;;;11.70;99.90;;;;;;5031957;28;20008;-74
2023/06/07 05:24:35;;;;;;;;;;;11.70;99.90;;;;;;5049714;28;20462;-74
2023/06/07 05:27:01;;;;;;;;;;;11.70;99.90;;;;;;5031689;28;19932;-74
2023/06/07 05:29:27;;;;;;;;;;;11.70;99.90;;;;;;5051565;28;19994;-74
2023/06/07 05:31:52;;;;;;;;;;;11.80;99.90;;;;;;5044805;28;20007;-74
2023/06/07 05:34:18;;;;;;;;;;;11.80;99.90;;;;;;5027498;28;19931;-75
2023/06/07 05:36:43;;;;;;;;;;;11.80;99.90;;;;;;5050065;28;21023;-74
2023/06/07 05:39:09;;;;;;;;;;;11.80;99.90;;;;;;5042429;28;19925;-74
2023/06/07 05:41:36;;;;;;;;;;;11.90;99.90;;;;;;5018161;28;19989;-74
2023/06/07 05:44:02;;;;;;;;;;;11.90;99.90;;;;;;5055519;28;19924;-74
2023/06/07 05:46:27;;;;;;;;;;;11.90;99.90;;;;;;5048285;28;19932;-74
2023/06/07 05:48:53;;;;;;;;;;;11.90;99.90;;;;;;5045080;28;19932;-74
2023/06/07 05:51:18;;;;;;;;;;;12.00;99.90;;;;;;5023991;28;19928;-72
2023/06/07 05:53:44;;;;;;;;;;;12.00;99.90;;;;;;5047319;28;19933;-74
2023/06/07 05:56:11;;;;;;;;;;;12.00;99.90;;;;;;5049210;28;19928;-74
2023/06/07 05:58:37;;;;;;;;;;;12.10;99.90;;;;;;5048414;28;20402;-74
2023/06/07 06:01:05;;;;;;;;;;;12.10;99.90;;;;;;5051092;28;20004;-74
2023/06/07 06:03:30;;;;;;;;;;;12.10;99.90;;;;;;5033858;28;20287;-73
2023/06/07 06:05:57;;;;;;;;;;;12.10;99.90;;;;;;5027888;28;19929;-74
2023/06/07 06:08:22;;;;;;;;;;;12.30;99.90;;;;;;5032032;28;20419;-73
2023/06/07 06:10:48;;;;;;;;;;;12.40;99.90;;;;;;5045925;28;19925;-74
2023/06/07 06:13:13;;;;;;;;;;;12.30;99.90;;;;;;5041064;28;19979;-74
2023/06/07 06:15:39;;;;;;;;;;;12.40;99.90;;;;;;5030554;28;19987;-74
2023/06/07 06:18:05;;;;;;;;;;;12.60;99.90;;;;;;5031121;28;19933;-73
2023/06/07 06:20:33;;;;;;;;;;;12.30;99.90;;;;;;5042382;28;19948;-74
2023/06/07 06:22:59;;;;;;;;;;;12.30;99.90;;;;;;5030363;28;19980;-73
2023/06/07 06:25:25;;;;;;;;;;;12.00;99.90;;;;;;5030700;28;19983;-74
2023/06/07 06:27:51;;;;;;;;;;;12.10;99.90;;;;;;5031437;28;19956;-72
2023/06/07 06:30:16;;;;;;;;;;;12.10;99.90;;;;;;5045540;28;19925;-76
2023/06/07 06:32:42;;;;;;;;;;;12.20;99.90;;;;;;5026803;28;19971;-73
2023/06/07 06:35:08;;;;;;;;;;;12.20;99.90;;;;;;5028748;28;19921;-74
2023/06/07 06:37:33;;;;;;;;;;;12.20;99.90;;;;;;5027406;28;20007;-74
2023/06/07 06:39:59;;;;;;;;;;;12.20;99.90;;;;;;5024024;28;19933;-73
2023/06/07 06:42:24;;;;;;;;;;;12.30;99.90;;;;;;5028455;28;20367;-73
2023/06/07 06:44:50;;;;;;;;;;;12.60;99.90;;;;;;5029597;28;19925;-74
2023/06/07 06:47:16;;;;;;;;;;;12.60;99.90;;;;;;5030669;28;19925;-74
2023/06/07 06:49:41;;;;;;;;;;;12.70;99.90;;;;;;5028526;28;19955;-72
2023/06/07 06:52:07;;;;;;;;;;;12.90;99.90;;;;;;5030987;28;19992;-73
2023/06/07 06:54:32;;;;;;;;;;;12.90;99.90;;;;;;5029235;28;19925;-74
2023/06/07 06:56:58;;;;;;;;;;;12.80;99.90;;;;;;5030786;28;20020;-74
2023/06/07 06:59:23;;;;;;;;;;;12.80;99.90;;;;;;5030502;28;20363;-73
2023/06/07 07:01:50;;;;;;;;;;;12.80;99.90;;;;;;5029067;28;19932;-75
2023/06/07 07:04:16;;;;;;;;;;;12.90;99.90;;;;;;5024027;28;19932;-74
2023/06/07 07:06:42;;;;;;;;;;;13.00;99.90;;;;;;5046272;28;19928;-73
2023/06/07 07:09:09;;;;;;;;;;;13.00;99.90;;;;;;5050396;28;19932;-73
2023/06/07 07:11:35;;;;;;;;;;;13.00;99.90;;;;;;5050141;28;19921;-73
2023/06/07 07:14:00;;;;;;;;;;;13.00;99.90;;;;;;5049758;28;19925;-74
2023/06/07 07:16:26;;;;;;;;;;;13.10;99.90;;;;;;5046305;28;20267;-74
2023/06/07 07:18:51;;;;;;;;;;;13.30;99.90;;;;;;5048680;28;19971;-74
2023/06/07 07:21:17;;;;;;;;;;;14.30;99.90;;;;;;5048555;28;20023;-74
2023/06/07 07:23:43;;;;;;;;;;;15.70;99.90;;;;;;5050644;28;20326;-75
2023/06/07 07:26:08;;;;;;;;;;;14.60;99.90;;;;;;5047774;28;19971;-74
2023/06/07 07:28:34;;;;;;;;;;;14.60;99.90;;;;;;5048899;28;20267;-74
2023/06/07 07:30:59;;;;;;;;;;;15.90;99.90;;;;;;5048756;28;19931;-75
2023/06/07 07:33:25;;;;;;;;;;;15.20;99.90;;;;;;5049687;28;20019;-73
2023/06/07 07:35:52;;;;;;;;;;;15.70;99.90;;;;;;5031054;28;20008;-74
2023/06/07 07:38:17;;;;;;;;;;;16.00;99.90;;;;;;5032459;28;19933;-74
2023/06/07 07:40:47;;;;;;;;;;;15.10;99.90;;;;;;5048868;28;19948;-75
2023/06/07 07:43:12;;;;;;;;;;;15.10;99.90;;;;;;5048092;28;20271;-74
2023/06/07 07:45:38;;;;;;;;;;;14.60;99.90;;;;;;5048422;28;19925;-74
2023/06/07 07:48:03;;;;;;;;;;;14.60;99.90;;;;;;5032746;28;20440;-73
2023/06/07 07:50:29;;;;;;;;;;;14.40;99.90;;;;;;5048410;28;19951;-74
2023/06/07 07:52:56;;;;;;;;;;;14.40;99.90;;;;;;5049618;28;19925;-74
2023/06/07 07:55:22;;;;;;;;;;;14.50;99.90;;;;;;5049280;28;19925;-74
2023/06/07 07:57:48;;;;;;;;;;;14.40;99.90;;;;;;5028649;28;19931;-73
2023/06/07 08:00:14;;;;;;;;;;;14.50;99.90;;;;;;5046882;28;19924;-72
2023/06/07 08:02:39;;;;;;;;;;;14.60;99.90;;;;;;5048805;28;19932;-73
2023/06/07 08:05:06;;;;;;;;;;;14.70;99.90;;;;;;5013203;28;19924;-72
2023/06/07 08:07:32;;;;;;;;;;;15.00;99.90;;;;;;5028805;28;19933;-74
2023/06/07 08:09:58;;;;;;;;;;;15.10;99.90;;;;;;5049092;28;19947;-73
2023/06/07 08:12:23;;;;;;;;;;;14.80;99.90;;;;;;5048931;28;19972;-74
2023/06/07 08:14:49;;;;;;;;;;;15.10;99.90;;;;;;5047891;28;20399;-74
2023/06/07 08:17:15;;;;;;;;;;;15.10;99.90;;;;;;5048694;28;19925;-73
2023/06/07 08:19:40;;;;;;;;;;;15.40;99.90;;;;;;5048629;28;20000;-73
2023/06/07 08:22:06;;;;;;;;;;;15.40;99.90;;;;;;5049771;28;20027;-73
2023/06/07 08:24:32;;;;;;;;;;;15.70;99.90;;;;;;5045404;28;19924;-74
2023/06/07 08:26:57;;;;;;;;;;;15.40;99.90;;;;;;5030114;28;19967;-75
2023/06/07 08:29:23;;;;;;;;;;;15.30;99.90;;;;;;5046958;28;19931;-72
2023/06/07 08:31:48;;;;;;;;;;;15.50;99.90;;;;;;5048151;28;19924;-71
2023/06/07 08:34:14;;;;;;;;;;;15.30;99.90;;;;;;5048283;28;20267;-70
2023/06/07 08:36:41;;;;;;;;;;;15.50;99.90;;;;;;5048115;28;20011;-71
2023/06/07 08:39:07;;;;;;;;;;;15.90;99.90;;;;;;5044426;28;19936;-73
2023/06/07 08:41:33;;;;;;;;;;;15.90;99.90;;;;;;5042355;28;19943;-72
2023/06/07 08:43:58;;;;;;;;;;;16.00;99.90;;;;;;5047585;28;19924;-70
2023/06/07 08:46:25;;;;;;;;;;;16.40;99.90;;;;;;5048241;28;19927;-70
2023/06/07 08:48:51;;;;;;;;;;;16.50;99.90;;;;;;5029332;28;19925;-70
2023/06/07 08:51:17;;;;;;;;;;;16.20;99.90;;;;;;5046638;28;19966;-71
2023/06/07 08:53:48;;;;;;;;;;;16.40;99.90;;;;;;5030723;28;19929;-69
2023/06/07 08:56:13;;;;;;;;;;;16.50;99.90;;;;;;5047161;28;21767;-71
2023/06/07 08:58:39;;;;;;;;;;;16.40;99.90;;;;;;5045395;28;19976;-70
2023/06/07 09:01:05;;;;;;;;;;;16.70;99.90;;;;;;5048827;28;19925;-70
2023/06/07 09:03:31;;;;;;;;;;;16.60;99.90;;;;;;5045510;28;20015;-72
2023/06/07 09:07:07;;;;;;;8.32;3.50;;;16.60;99.90;;;;;;5104026;27;20399;-71
2023/06/07 09:09:34;;;;;;;9.07;2.72;;;16.20;99.90;;;;;;5105670;28;20071;-71
2023/06/07 09:12:00;;;;;;;10.35;4.00;;;16.70;99.90;;;;;;5091768;28;20039;-71
2023/06/07 09:14:28;;;;;;;11.50;3.13;;;16.70;99.90;;;;;;5084835;28;20130;-71
2023/06/07 09:17:00;;;;;;;10.85;3.58;;;16.80;99.90;;;;;;5089325;28;20058;-72
2023/06/07 09:19:42;;;;;;;7.32;3.85;;;17.20;99.90;;;;;;5099613;28;20036;-72
2023/06/07 09:22:13;;;;;;;12.05;4.15;;;16.90;99.90;;;;;;5081788;28;20073;-71
2023/06/07 09:24:40;;;;;;;14.98;4.40;;;16.90;99.90;;;;;;5084466;28;20136;-71
2023/06/07 09:27:08;;;;;;;8.40;3.63;;;16.80;99.90;;;;;;5089297;28;20137;-71
2023/06/07 09:29:43;;;;;;;11.43;3.88;;;17.10;99.90;;;;;;5079303;28;20044;-72
2023/06/07 09:32:25;;;;;;;8.23;3.13;;;17.30;99.90;;;;;;5071115;28;20398;-72
2023/06/07 09:34:53;;;;;;;11.25;3.58;;;17.20;99.90;;;;;;5102650;28;20032;-71
2023/06/07 09:37:21;;;;;;;7.10;3.28;;;17.00;99.90;;;;;;5101359;28;20040;-73
2023/06/07 09:39:52;;;;;;;11.30;3.00;;;17.20;99.90;;;;;;5086629;28;20044;-73
2023/06/07 09:42:18;;;;;;;11.13;3.65;;;17.30;99.90;;;;;;5103842;28;20131;-73
2023/06/07 09:44:44;;;;;;;8.45;3.20;;;17.20;99.90;;;;;;5105473;28;20165;-71
2023/06/07 09:47:21;;;;;;;8.35;3.47;;;16.90;99.90;;;;;;5059850;28;20036;-72
2023/06/07 09:49:47;;;;;;;19.55;5.47;;;17.30;99.90;;;;;;5105239;28;20225;-73
2023/06/07 09:52:15;;;;;;;8.45;2.97;;;17.50;99.90;;;;;;5070029;28;20157;-72
2023/06/07 09:54:42;;;;;;;10.13;2.85;;;17.80;99.90;;;;;;5086752;28;20127;-72
2023/06/07 09:57:11;;;;;;;7.82;2.72;;;17.40;99.90;;;;;;5071759;28;20533;-73
2023/06/07 09:59:38;;;;;;;7.70;3.25;;;17.60;99.90;;;;;;5072357;28;20052;-72
2023/06/07 10:02:25;;;;;;;11.98;4.68;;;17.70;99.90;;;;;;5088773;28;20054;-72
2023/06/07 10:04:52;;;;;;;13.85;3.20;;;17.50;99.90;;;;;;5070396;28;20054;-72
2023/06/07 10:07:22;;;;;;;11.05;2.97;;;17.50;99.90;;;;;;5086549;28;20128;-73
2023/06/07 10:09:53;;;;;;;11.33;4.20;;;17.70;99.90;;;;;;5062929;28;20582;-72
2023/06/07 10:12:24;;;;;;;11.52;3.75;;;17.70;99.90;;;;;;5082967;28;20291;-71
2023/06/07 10:14:52;;;;;;;11.50;4.22;;;17.60;99.90;;;;;;5064483;28;20044;-72
2023/06/07 10:17:21;;;;;;;10.02;3.55;;;17.80;99.90;;;;;;5052793;28;20202;-71
2023/06/07 10:19:51;;;;;;;10.95;3.40;;;18.10;99.90;;;;;;5055694;28;20087;-73
2023/06/07 10:22:22;;;;;;;12.10;4.40;;;18.00;99.90;;;;;;5057051;28;20059;-71
2023/06/07 10:25:08;;;;;;;11.70;4.30;;;17.90;99.90;;;;;;5066700;28;20040;-71
2023/06/07 10:27:57;;;;;;;12.00;3.83;;;17.80;99.90;;;;;;5068602;28;20127;-71
2023/06/07 10:30:25;;;;;;;8.77;3.75;;;18.10;99.90;;;;;;5051657;28;20065;-71
2023/06/07 10:32:52;;;;;;;7.43;3.33;;;17.60;99.90;;;;;;5063125;28;20040;-71
2023/06/07 10:35:20;;;;;;;11.80;3.40;;;17.80;99.90;;;;;;5061670;28;20048;-72
2023/06/07 10:37:53;;;;;;;11.40;3.78;;;18.20;99.90;;;;;;5067181;28;20044;-71
2023/06/07 10:40:21;;;;;;;18.95;5.03;;;18.30;99.90;;;;;;5057233;28;20071;-71
2023/06/07 10:42:47;;;;;;;11.73;3.95;;;18.40;99.90;;;;;;5072865;28;20047;-73
2023/06/07 10:45:17;;;;;;;13.68;4.15;;;18.10;99.90;;;;;;5058549;28;20411;-72
2023/06/07 10:47:43;;;;;;;13.57;4.30;;;18.30;99.90;;;;;;5062401;28;20040;-70
2023/06/07 10:50:32;;;;;;;10.85;4.80;;;18.30;99.90;;;;;;5051856;28;20047;-71
2023/06/07 10:53:01;;;;;;;11.38;3.50;;;18.30;99.90;;;;;;5084053;28;20052;-71
2023/06/07 10:55:32;;;;;;;13.63;4.03;;;18.20;99.90;;;;;;5061255;28;20045;-71
2023/06/07 10:57:59;;;;;;;15.38;3.75;;;18.50;99.90;;;;;;5052344;28;20114;-71
2023/06/07 11:00:28;;;;;;;12.27;4.15;;;18.50;99.90;;;;;;5071157;28;20090;-71
2023/06/07 11:03:10;;;;;;;9.35;4.40;;;18.40;99.90;;;;;;5092481;28;20048;-71
2023/06/07 11:05:55;;;;;;;8.88;3.70;;;18.20;99.90;;;;;;5076956;28;20700;-70
2023/06/07 11:08:28;;;;;;;14.50;3.90;;;18.40;99.90;;;;;;5041402;28;20382;-71
2023/06/07 11:11:00;;;;;;;14.65;5.18;;;18.50;99.90;;;;;;5067042;28;20051;-71
2023/06/07 11:13:46;;;;;;;13.15;5.15;;;18.20;99.90;;;;;;5068551;28;20079;-71
2023/06/07 11:16:36;;;;;;;18.30;5.57;;;18.40;99.90;;;;;;5037130;28;20053;-72
2023/06/07 11:19:06;;;;;;;13.85;4.78;;;18.50;99.90;;;;;;5042990;28;20057;-71
2023/06/07 11:21:53;;;;;;;11.57;5.15;;;18.60;99.90;;;;;;5065028;28;20402;-71
2023/06/07 11:24:20;;;;;;;11.10;5.03;;;18.70;99.90;;;;;;5030476;28;20045;-72
2023/06/07 11:26:47;;;;;;;17.58;7.28;;;18.40;99.90;;;;;;5069243;28;20044;-71
2023/06/07 11:29:15;;;;;;;20.80;9.05;;;18.70;99.90;;;;;;5050421;28;20105;-72
2023/06/07 11:31:41;;;;;;;11.55;5.75;;;18.50;99.90;;;;;;5058962;28;20132;-71
2023/06/07 11:34:12;;;;;;;12.68;5.88;;;18.30;99.90;;;;;;5048632;28;20393;-72
2023/06/07 11:36:37;;;;;;;;;;;18.70;99.90;;;;;;5059664;28;20053;-71
2023/06/07 11:39:08;;;;;;;15.25;5.15;;;18.50;99.90;;;;;;5053601;28;19928;-71
2023/06/07 11:41:34;;;;;;;16.70;6.35;;;18.80;99.90;;;;;;5060686;28;20110;-71
2023/06/07 11:44:01;;;;;;;7.53;4.85;;;18.90;99.90;;;;;;5052676;28;20044;-71
2023/06/07 11:46:32;;;;;;;12.07;5.75;;;19.10;99.90;;;;;;5064103;28;20052;-71
2023/06/07 11:49:09;;;;;;;12.50;4.20;;;18.70;99.90;;;;;;5055410;28;20036;-71
2023/06/07 11:51:38;;;;;;;10.38;4.50;;;18.90;99.90;;;;;;5061675;28;20044;-71
2023/06/07 11:54:05;;;;;;;9.00;5.70;;;18.70;99.90;;;;;;5065617;28;20036;-71
2023/06/07 11:56:36;;;;;;;13.27;4.60;;;18.70;99.90;;;;;;5047125;28;20068;-72
2023/06/07 11:59:03;;;;;;;10.95;4.13;;;18.90;99.90;;;;;;5055260;28;20029;-71
2023/06/07 12:01:29;;;;;;;12.52;5.00;;;18.60;99.90;;;;;;5065910;28;20044;-71
2023/06/07 12:03:56;;;;;;;13.43;4.60;;;18.80;99.90;;;;;;5065156;28;20051;-72
2023/06/07 12:06:26;;;;;;;11.68;5.25;;;18.80;99.90;;;;;;5066594;28;20502;-72
2023/06/07 12:08:51;;;;;;;10.20;3.78;;;18.90;99.90;;;;;;5065965;28;20507;-71
2023/06/07 12:11:23;;;;;;;13.13;5.63;;;19.00;99.90;;;;;;5067766;28;20055;-72
2023/06/07 12:13:59;;;;;;;11.70;4.32;;;18.70;99.90;;;;;;5065061;28;20040;-71
2023/06/07 12:16:26;;;;;;;15.23;5.05;;;18.90;99.90;;;;;;5064931;28;20048;-71
2023/06/07 12:18:52;;;;;;;10.60;4.18;;;18.80;99.90;;;;;;5069789;28;20041;-71
2023/06/07 12:21:23;;;;;;;9.82;4.40;;;18.40;99.90;;;;;;5062901;28;20464;-71
2023/06/07 12:23:51;;;;;;;10.68;4.70;;;18.90;99.90;;;;;;5063040;28;20588;-71
2023/06/07 12:26:30;;;;;;;11.57;4.72;;;18.70;99.90;;;;;;5075346;28;20111;-73
2023/06/07 12:28:55;;;;;;;7.45;4.20;;;18.80;99.90;;;;;;5087887;28;20051;-72
2023/06/07 12:31:24;;;;;;;10.13;3.97;;;18.70;99.90;;;;;;5087601;28;20430;-72
2023/06/07 12:33:57;;;;;;;16.50;5.78;;;19.10;99.90;;;;;;5044375;28;20037;-71
2023/06/07 12:36:25;;;;;;;12.25;6.03;;;19.20;99.90;;;;;;5063162;28;20043;-71
2023/06/07 12:38:51;;;;;;;17.55;4.97;;;18.90;99.90;;;;;;5057203;28;20041;-71
2023/06/07 12:41:17;;;;;;;9.40;3.58;;;18.90;99.90;;;;;;5042197;28;20044;-73
2023/06/07 12:43:47;;;;;;;14.57;5.05;;;18.80;99.90;;;;;;5088093;28;20375;-72
2023/06/07 12:46:13;;;;;;;8.38;3.47;;;18.60;99.90;;;;;;5086905;28;20059;-72
2023/06/07 12:48:39;;;;;;;10.60;5.43;;;18.90;99.90;;;;;;5050679;28;20041;-72
2023/06/07 12:51:06;;;;;;;11.25;4.13;;;19.00;99.90;;;;;;5051153;28;20140;-72
2023/06/07 12:53:32;;;;;;;8.00;4.03;;;19.00;99.90;;;;;;5042073;28;20052;-72
2023/06/07 12:55:57;;;;;;;13.35;4.68;;;19.20;99.90;;;;;;5063506;28;20041;-72
2023/06/07 12:58:23;;;;;;;10.20;3.97;;;18.70;99.90;;;;;;5070172;28;20045;-72
2023/06/07 13:00:48;;;;;;;12.13;3.33;;;18.90;99.90;;;;;;5067019;28;20099;-72
2023/06/07 13:03:17;;;;;;;13.77;4.63;;;18.70;99.90;;;;;;5054793;28;20087;-72
2023/06/07 13:05:43;;;;;;;8.05;4.15;;;19.00;99.90;;;;;;5065013;28;20048;-71
2023/06/07 13:08:08;;;;;;;13.20;4.32;;;18.90;99.90;;;;;;5049135;28;20037;-71
2023/06/07 13:10:34;;;;;;;11.55;3.92;;;19.00;99.90;;;;;;5056973;28;20506;-72
2023/06/07 13:13:00;;;;;;;11.38;4.47;;;19.20;99.90;;;;;;5052786;28;20049;-71
2023/06/07 13:15:25;;;;;;;10.32;3.97;;;19.00;99.90;;;;;;5050681;28;20045;-71
2023/06/07 13:17:51;;;;;;;14.00;3.67;;;18.90;99.90;;;;;;5087433;28;20093;-71
2023/06/07 13:20:17;;;;;;;13.27;5.43;;;18.70;99.90;;;;;;5087053;28;20092;-72
2023/06/07 13:22:42;;;;;;;10.65;4.47;;;18.60;99.90;;;;;;5054108;28;20045;-73
2023/06/07 13:25:09;;;;;;;9.40;3.80;;;18.70;99.90;;;;;;5053925;28;20430;-71
2023/06/07 13:27:37;;;;;;;8.55;4.22;;;19.00;99.90;;;;;;5077055;28;20056;-71
2023/06/07 13:30:04;;;;;;;10.95;4.78;;;18.90;99.90;;;;;;5067397;28;20159;-71
2023/06/07 13:32:29;;;;;;;11.60;4.63;;;18.90;99.90;;;;;;5070820;28;20085;-72
2023/06/07 13:34:55;;;;;;;10.45;4.28;;;18.80;99.90;;;;;;5050619;28;20044;-72
2023/06/07 13:37:21;;;;;;;8.88;3.88;;;18.70;99.90;;;;;;5056931;28;20399;-71
2023/06/07 13:39:46;;;;;;;9.38;3.92;;;18.90;99.90;;;;;;5059938;28;20040;-73
2023/06/07 13:42:12;;;;;;;16.75;4.93;;;19.00;99.90;;;;;;5075572;28;20032;-73
2023/06/07 13:44:39;;;;;;;10.60;4.88;;;18.80;99.90;;;;;;5066339;28;20540;-71